Time,TemperatureF,DewpointF,PressureIn,WindDirection,WindDirectionDegrees,WindSpeedMPH,WindSpeedGustMPH,Humidity,HourlyPrecipIn,Conditions,Clouds,dailyrainin,SoftwareType,DateUTC
2013-05-08 00:00:00,60.0,60.0,29.99,ESE,115,1.0,17.0,100,0.00,,,0.00,Wunderground v.1.15,2013-05-08 04:00:00,
2013-05-08 00:05:00,59.8,59.5,29.99,ESE,115,1.0,17.0,99,0.00,,,0.00,Wunderground v.1.15,2013-05-08 04:05:00,
2013-05-08 00:10:00,59.6,59.3,29.99,ESE,116,1.0,1.0,99,0.00,,,0.00,Wunderground v.1.15,2013-05-08 04:10:00,
2013-05-08 00:15:00,59.5,59.2,29.99,ESE,115,0.0,17.0,99,0.00,,,0.00,Wunderground v.1.15,2013-05-08 04:15:00,
2013-05-08 00:20:00,59.4,59.1,29.99,ESE,116,0.0,17.0,99,0.00,,,0.00,Wunderground v.1.15,2013-05-08 04:20:00,
2013-05-08 00:25:00,59.3,59.0,29.99,ESE,116,0.0,17.0,99,0.00,,,0.00,Wunderground v.1.15,2013-05-08 04:25:00,
2013-05-08 00:30:00,59.2,58.9,30.00,ESE,115,0.0,17.0,99,0.00,,,0.00,Wunderground v.1.15,2013-05-08 04:30:00,
2013-05-08 00:40:00,59.0,58.7,30.00,ESE,115,1.0,17.0,99,0.00,,,0.00,Wunderground v.1.15,2013-05-08 04:40:00,
2013-05-08 00:45:00,59.0,58.7,29.99,ESE,115,1.0,17.0,99,0.00,,,0.00,Wunderground v.1.15,2013-05-08 04:45:00,
2013-05-08 00:50:00,59.0,58.7,29.99,ESE,116,2.0,2.0,99,0.00,,,0.00,Wunderground v.1.15,2013-05-08 04:50:00,
2013-05-08 00:55:00,59.0,58.7,29.99,ESE,115,1.0,17.0,99,0.00,,,0.00,Wunderground v.1.15,2013-05-08 04:55:00,
2013-05-08 01:00:00,59.0,58.4,29.99,ESE,115,0.0,17.0,98,0.00,,,0.00,Wunderground v.1.15,2013-05-08 05:00:00,
2013-05-08 01:10:00,58.7,58.4,29.99,ESE,115,0.0,17.0,99,0.00,,,0.00,Wunderground v.1.15,2013-05-08 05:10:00,
2013-05-08 01:15:00,58.6,58.3,29.99,ESE,116,0.0,17.0,99,0.00,,,0.00,Wunderground v.1.15,2013-05-08 05:15:00,
2013-05-08 01:20:00,58.5,58.2,29.98,ESE,115,0.0,17.0,99,0.00,,,0.00,Wunderground v.1.15,2013-05-08 05:20:00,
2013-05-08 01:25:00,58.5,58.2,29.98,ESE,115,0.0,17.0,99,0.00,,,0.00,Wunderground v.1.15,2013-05-08 05:25:00,
2013-05-08 01:35:00,58.5,58.2,29.98,ESE,115,0.0,17.0,99,0.00,,,0.00,Wunderground v.1.15,2013-05-08 05:35:00,
2013-05-08 01:40:00,58.4,58.1,29.98,ESE,116,0.0,17.0,99,0.00,,,0.00,Wunderground v.1.15,2013-05-08 05:40:00,
2013-05-08 01:45:00,58.4,58.4,29.98,ESE,116,0.0,17.0,100,0.00,,,0.00,Wunderground v.1.15,2013-05-08 05:45:00,
2013-05-08 01:50:00,58.4,58.4,29.98,ESE,116,0.0,17.0,100,0.00,,,0.00,Wunderground v.1.15,2013-05-08 05:50:00,
2013-05-08 01:55:00,58.4,58.4,29.98,ESE,116,0.0,17.0,100,0.00,,,0.00,Wunderground v.1.15,2013-05-08 05:55:00,
2013-05-08 02:05:00,58.5,58.5,29.98,ESE,116,0.0,17.0,100,0.00,,,0.00,Wunderground v.1.15,2013-05-08 06:05:00,
2013-05-08 02:10:00,58.7,58.7,29.97,ESE,105,0.0,17.0,100,0.00,,,0.00,Wunderground v.1.15,2013-05-08 06:10:00,
2013-05-08 02:15:00,58.9,58.9,29.97,ESE,113,2.0,17.0,100,0.00,,,0.00,Wunderground v.1.15,2013-05-08 06:15:00,
2013-05-08 02:20:00,58.9,58.9,29.97,ESE,113,2.0,17.0,100,0.00,,,0.01,Wunderground v.1.15,2013-05-08 06:20:00,
2013-05-08 02:25:00,59.0,59.0,29.97,ESE,113,2.0,17.0,100,0.00,,,0.01,Wunderground v.1.15,2013-05-08 06:25:00,
2013-05-08 02:35:00,59.0,59.0,29.97,East,85,3.0,17.0,100,0.00,,,0.01,Wunderground v.1.15,2013-05-08 06:35:00,
2013-05-08 02:40:00,59.0,59.0,29.97,East,84,3.0,17.0,100,0.00,,,0.01,Wunderground v.1.15,2013-05-08 06:40:00,
2013-05-08 02:45:00,59.0,59.0,29.96,East,85,2.0,17.0,100,0.00,,,0.01,Wunderground v.1.15,2013-05-08 06:45:00,
2013-05-08 02:50:00,59.0,59.0,29.96,East,101,2.0,17.0,100,0.00,,,0.01,Wunderground v.1.15,2013-05-08 06:50:00,
2013-05-08 03:00:00,58.9,58.9,29.96,ESE,107,2.0,17.0,100,0.00,,,0.01,Wunderground v.1.15,2013-05-08 07:00:00,
2013-05-08 03:05:00,58.9,58.9,29.96,East,92,2.0,17.0,100,0.00,,,0.01,Wunderground v.1.15,2013-05-08 07:05:00,
2013-05-08 03:10:00,58.8,58.8,29.96,East,95,2.0,2.0,100,0.00,,,0.01,Wunderground v.1.15,2013-05-08 07:10:00,
2013-05-08 03:15:00,58.8,58.8,29.96,East,96,2.0,17.0,100,0.00,,,0.01,Wunderground v.1.15,2013-05-08 07:15:00,
2013-05-08 03:20:00,58.7,58.7,29.96,East,96,1.0,1.0,100,0.00,,,0.01,Wunderground v.1.15,2013-05-08 07:20:00,
2013-05-08 03:30:00,58.6,58.6,29.96,East,85,2.0,17.0,100,0.00,,,0.01,Wunderground v.1.15,2013-05-08 07:30:00,
2013-05-08 03:35:00,58.5,58.5,29.97,East,84,2.0,17.0,100,0.00,,,0.01,Wunderground v.1.15,2013-05-08 07:35:00,
2013-05-08 03:40:00,58.4,58.4,29.97,ESE,113,2.0,17.0,100,0.00,,,0.01,Wunderground v.1.15,2013-05-08 07:40:00,
2013-05-08 03:45:00,58.3,58.3,29.97,East,82,2.0,17.0,100,0.00,,,0.01,Wunderground v.1.15,2013-05-08 07:45:00,
2013-05-08 03:55:00,58.3,58.3,29.97,East,82,1.0,3.0,100,0.00,,,0.01,Wunderground v.1.15,2013-05-08 07:55:00,
2013-05-08 04:00:00,58.3,58.3,29.97,East,82,2.0,2.0,100,0.00,,,0.01,Wunderground v.1.15,2013-05-08 08:00:00,
2013-05-08 04:05:00,58.3,58.3,29.97,East,82,2.0,17.0,100,0.00,,,0.01,Wunderground v.1.15,2013-05-08 08:05:00,
2013-05-08 04:10:00,58.3,58.3,29.97,ESE,110,2.0,17.0,100,0.00,,,0.01,Wunderground v.1.15,2013-05-08 08:10:00,
2013-05-08 04:15:00,58.1,58.1,29.97,East,98,2.0,17.0,100,0.00,,,0.01,Wunderground v.1.15,2013-05-08 08:15:00,
2013-05-08 04:25:00,58.1,58.1,29.97,East,98,1.0,17.0,100,0.00,,,0.01,Wunderground v.1.15,2013-05-08 08:25:00,
2013-05-08 04:30:00,58.1,58.1,29.97,East,96,1.0,1.0,100,0.00,,,0.01,Wunderground v.1.15,2013-05-08 08:30:00,
2013-05-08 04:35:00,58.1,58.1,29.97,East,97,1.0,3.0,100,0.00,,,0.01,Wunderground v.1.15,2013-05-08 08:35:00,
2013-05-08 04:40:00,58.1,58.1,29.97,East,98,1.0,17.0,100,0.00,,,0.01,Wunderground v.1.15,2013-05-08 08:40:00,
2013-05-08 04:50:00,58.1,58.1,29.97,East,98,1.0,1.0,100,0.00,,,0.01,Wunderground v.1.15,2013-05-08 08:50:00,
2013-05-08 04:55:00,58.1,58.1,29.97,East,98,1.0,17.0,100,0.00,,,0.01,Wunderground v.1.15,2013-05-08 08:55:00,
2013-05-08 05:00:00,58.1,58.1,29.97,East,98,1.0,17.0,100,0.00,,,0.01,Wunderground v.1.15,2013-05-08 09:00:00,
2013-05-08 05:05:00,58.1,58.1,29.97,East,98,0.0,17.0,100,0.00,,,0.01,Wunderground v.1.15,2013-05-08 09:05:00,
2013-05-08 05:10:00,58.0,58.0,29.97,East,98,1.0,1.0,100,0.00,,,0.01,Wunderground v.1.15,2013-05-08 09:10:00,
2013-05-08 05:20:00,58.0,58.0,29.97,East,98,0.0,17.0,100,0.00,,,0.01,Wunderground v.1.15,2013-05-08 09:20:00,
2013-05-08 05:25:00,58.0,58.0,29.97,East,98,0.0,17.0,100,0.00,,,0.01,Wunderground v.1.15,2013-05-08 09:25:00,
2013-05-08 05:30:00,58.0,58.0,29.97,East,98,0.0,17.0,100,0.00,,,0.01,Wunderground v.1.15,2013-05-08 09:30:00,
2013-05-08 05:35:00,57.9,57.9,29.97,East,98,0.0,17.0,100,0.00,,,0.01,Wunderground v.1.15,2013-05-08 09:35:00,
2013-05-08 05:40:00,57.9,57.9,29.97,East,98,0.0,17.0,100,0.00,,,0.01,Wunderground v.1.15,2013-05-08 09:40:00,
2013-05-08 05:50:00,57.9,57.9,29.97,East,98,0.0,17.0,100,0.00,,,0.01,Wunderground v.1.15,2013-05-08 09:50:00,
2013-05-08 05:55:00,57.9,57.9,29.97,East,98,0.0,17.0,100,0.00,,,0.01,Wunderground v.1.15,2013-05-08 09:55:00,
2013-05-08 06:00:00,57.9,57.9,29.97,East,98,0.0,17.0,100,0.00,,,0.01,Wunderground v.1.15,2013-05-08 10:00:00,
2013-05-08 06:05:00,57.9,57.9,29.98,East,98,0.0,17.0,100,0.00,,,0.01,Wunderground v.1.15,2013-05-08 10:05:00,
2013-05-08 06:15:00,57.9,57.9,29.98,East,98,0.0,17.0,100,0.00,,,0.01,Wunderground v.1.15,2013-05-08 10:15:00,
2013-05-08 06:20:00,57.9,57.9,29.98,East,98,0.0,17.0,100,0.00,,,0.01,Wunderground v.1.15,2013-05-08 10:20:00,
2013-05-08 06:25:00,57.9,57.9,29.98,East,98,0.0,17.0,100,0.00,,,0.01,Wunderground v.1.15,2013-05-08 10:25:00,
2013-05-08 06:30:00,57.9,57.9,29.99,East,98,0.0,17.0,100,0.00,,,0.01,Wunderground v.1.15,2013-05-08 10:30:00,
2013-05-08 06:35:00,58.0,58.0,29.99,East,98,0.0,17.0,100,0.00,,,0.01,Wunderground v.1.15,2013-05-08 10:35:00,
2013-05-08 06:45:00,58.0,58.0,29.99,East,98,0.0,17.0,100,0.00,,,0.01,Wunderground v.1.15,2013-05-08 10:45:00,
2013-05-08 06:50:00,58.0,58.0,29.99,East,98,0.0,17.0,100,0.00,,,0.01,Wunderground v.1.15,2013-05-08 10:50:00,
2013-05-08 06:55:00,58.0,58.0,29.99,East,98,0.0,17.0,100,0.00,,,0.01,Wunderground v.1.15,2013-05-08 10:55:00,
2013-05-08 07:00:00,58.1,58.1,29.99,East,98,0.0,17.0,100,0.00,,,0.01,Wunderground v.1.15,2013-05-08 11:00:00,
2013-05-08 07:10:00,58.1,58.1,29.99,East,98,0.0,17.0,100,0.00,,,0.01,Wunderground v.1.15,2013-05-08 11:10:00,
2013-05-08 07:15:00,58.0,58.0,29.99,East,98,0.0,17.0,100,0.00,,,0.01,Wunderground v.1.15,2013-05-08 11:15:00,
2013-05-08 07:20:00,57.9,57.9,30.00,East,98,1.0,1.0,100,0.00,,,0.01,Wunderground v.1.15,2013-05-08 11:20:00,
2013-05-08 07:25:00,57.9,57.9,30.00,East,98,1.0,17.0,100,0.00,,,0.01,Wunderground v.1.15,2013-05-08 11:25:00,
2013-05-08 07:30:00,58.0,58.0,30.00,East,98,0.0,17.0,100,0.00,,,0.01,Wunderground v.1.15,2013-05-08 11:30:00,
2013-05-08 07:40:00,58.0,58.0,30.00,East,98,0.0,17.0,100,0.00,,,0.01,Wunderground v.1.15,2013-05-08 11:40:00,
2013-05-08 07:45:00,58.0,58.0,30.00,East,98,0.0,17.0,100,0.00,,,0.01,Wunderground v.1.15,2013-05-08 11:45:00,
2013-05-08 07:50:00,58.1,58.1,30.00,East,98,0.0,17.0,100,0.00,,,0.01,Wunderground v.1.15,2013-05-08 11:50:00,
2013-05-08 07:55:00,58.2,58.2,30.00,East,98,1.0,17.0,100,0.00,,,0.01,Wunderground v.1.15,2013-05-08 11:55:00,
2013-05-08 08:00:00,58.2,58.2,30.01,East,98,1.0,17.0,100,0.00,,,0.01,Wunderground v.1.15,2013-05-08 12:00:00,
2013-05-08 08:10:00,58.4,58.4,30.01,SE,126,1.0,17.0,100,0.00,,,0.01,Wunderground v.1.15,2013-05-08 12:10:00,
2013-05-08 08:15:00,58.6,58.3,30.01,SE,126,1.0,17.0,99,0.00,,,0.01,Wunderground v.1.15,2013-05-08 12:15:00,
2013-05-08 08:20:00,58.7,58.4,30.01,SE,126,0.0,17.0,99,0.00,,,0.01,Wunderground v.1.15,2013-05-08 12:20:00,
2013-05-08 08:25:00,59.0,59.0,30.01,SE,126,0.0,17.0,100,0.00,,,0.01,Wunderground v.1.15,2013-05-08 12:25:00,
2013-05-08 08:35:00,59.3,59.0,30.01,SE,126,1.0,17.0,99,0.00,,,0.01,Wunderground v.1.15,2013-05-08 12:35:00,
2013-05-08 08:40:00,59.6,59.0,30.01,SE,126,1.0,1.0,98,0.00,,,0.01,Wunderground v.1.15,2013-05-08 12:40:00,
2013-05-08 08:45:00,59.8,58.9,30.01,SE,126,1.0,2.0,97,0.00,,,0.01,Wunderground v.1.15,2013-05-08 12:45:00,
2013-05-08 08:50:00,59.8,58.9,30.01,SE,126,1.0,17.0,97,0.00,,,0.01,Wunderground v.1.15,2013-05-08 12:50:00,
2013-05-08 09:00:00,60.2,58.8,30.01,ESE,115,2.0,2.0,95,0.00,,,0.01,Wunderground v.1.15,2013-05-08 13:00:00,
2013-05-08 09:05:00,60.6,59.2,30.01,ESE,115,1.0,17.0,95,0.00,,,0.01,Wunderground v.1.15,2013-05-08 13:05:00,
2013-05-08 09:10:00,60.8,59.1,30.01,ESE,106,1.0,17.0,94,0.00,,,0.01,Wunderground v.1.15,2013-05-08 13:10:00,
2013-05-08 09:15:00,60.6,58.6,30.01,East,93,2.0,17.0,93,0.00,,,0.01,Wunderground v.1.15,2013-05-08 13:15:00,
2013-05-08 09:20:00,60.9,58.9,30.02,East,93,2.0,2.0,93,0.00,,,0.01,Wunderground v.1.15,2013-05-08 13:20:00,
2013-05-08 09:30:00,60.7,58.4,30.02,East,93,2.0,2.0,92,0.00,,,0.01,Wunderground v.1.15,2013-05-08 13:30:00,
2013-05-08 09:35:00,60.7,58.7,30.02,East,92,1.0,17.0,93,0.00,,,0.01,Wunderground v.1.15,2013-05-08 13:35:00,
2013-05-08 09:40:00,60.8,58.8,30.01,East,93,1.0,17.0,93,0.00,,,0.01,Wunderground v.1.15,2013-05-08 13:40:00,
2013-05-08 09:45:00,60.7,58.4,30.02,East,93,1.0,17.0,92,0.00,,,0.01,Wunderground v.1.15,2013-05-08 13:45:00,
2013-05-08 09:50:00,60.6,58.3,30.02,East,92,2.0,2.0,92,0.00,,,0.01,Wunderground v.1.15,2013-05-08 13:50:00,
2013-05-08 10:00:00,61.1,58.8,30.02,East,93,1.0,17.0,92,0.00,,,0.01,Wunderground v.1.15,2013-05-08 14:00:00,
2013-05-08 10:05:00,61.3,58.3,30.02,East,93,1.0,17.0,90,0.00,,,0.01,Wunderground v.1.15,2013-05-08 14:05:00,
2013-05-08 10:10:00,61.4,58.7,30.02,East,93,1.0,1.0,91,0.00,,,0.01,Wunderground v.1.15,2013-05-08 14:10:00,
2013-05-08 10:15:00,61.4,58.1,30.02,East,92,1.0,17.0,89,0.00,,,0.01,Wunderground v.1.15,2013-05-08 14:15:00,
2013-05-08 10:20:00,61.4,58.1,30.02,East,93,1.0,17.0,89,0.00,,,0.01,Wunderground v.1.15,2013-05-08 14:20:00,
2013-05-08 10:30:00,61.6,58.3,30.02,East,93,1.0,1.0,89,0.00,,,0.01,Wunderground v.1.15,2013-05-08 14:30:00,
2013-05-08 10:35:00,62.3,59.0,30.02,East,92,0.0,17.0,89,0.00,,,0.01,Wunderground v.1.15,2013-05-08 14:35:00,
2013-05-08 10:40:00,63.1,58.8,30.02,East,93,1.0,1.0,86,0.00,,,0.01,Wunderground v.1.15,2013-05-08 14:40:00,
2013-05-08 10:45:00,63.5,59.6,30.02,East,93,1.0,17.0,87,0.00,,,0.01,Wunderground v.1.15,2013-05-08 14:45:00,
2013-05-08 10:55:00,63.8,59.2,30.02,East,93,0.0,17.0,85,0.00,,,0.01,Wunderground v.1.15,2013-05-08 14:55:00,
2013-05-08 11:00:00,63.9,59.3,30.02,SE,144,0.0,17.0,85,0.00,,,0.01,Wunderground v.1.15,2013-05-08 15:00:00,
2013-05-08 11:05:00,63.8,58.9,30.02,SE,141,1.0,17.0,84,0.00,,,0.01,Wunderground v.1.15,2013-05-08 15:05:00,
2013-05-08 11:10:00,63.6,58.7,30.02,ESE,109,1.0,17.0,84,0.00,,,0.01,Wunderground v.1.15,2013-05-08 15:10:00,
2013-05-08 11:20:00,63.4,59.1,30.02,East,99,2.0,2.0,86,0.00,,,0.01,Wunderground v.1.15,2013-05-08 15:20:00,
2013-05-08 11:25:00,63.6,59.3,30.01,SE,145,1.0,17.0,86,0.00,,,0.01,Wunderground v.1.15,2013-05-08 15:25:00,
2013-05-08 11:30:00,64.0,59.1,30.01,SW,217,1.0,1.0,84,0.00,,,0.01,Wunderground v.1.15,2013-05-08 15:30:00,
2013-05-08 11:35:00,64.7,59.1,30.01,SSW,198,1.0,3.0,82,0.00,,,0.01,Wunderground v.1.15,2013-05-08 15:35:00,
2013-05-08 11:40:00,65.1,59.5,30.01,SSW,198,1.0,1.0,82,0.00,,,0.01,Wunderground v.1.15,2013-05-08 15:40:00,
2013-05-08 11:50:00,64.9,59.6,30.01,SSW,198,1.0,1.0,83,0.00,,,0.01,Wunderground v.1.15,2013-05-08 15:50:00,
2013-05-08 11:55:00,65.2,59.9,30.01,SSW,198,0.0,17.0,83,0.00,,,0.01,Wunderground v.1.15,2013-05-08 15:55:00,
2013-05-08 12:00:00,65.0,59.7,30.01,SSW,198,1.0,17.0,83,0.00,,,0.01,Wunderground v.1.15,2013-05-08 16:00:00,
2013-05-08 12:05:00,64.8,59.5,30.00,SSW,198,1.0,17.0,83,0.00,,,0.01,Wunderground v.1.15,2013-05-08 16:05:00,
2013-05-08 12:10:00,65.1,59.5,30.00,SSW,198,1.0,17.0,82,0.00,,,0.01,Wunderground v.1.15,2013-05-08 16:10:00,
2013-05-08 12:20:00,66.2,59.1,30.00,SSW,192,1.0,17.0,78,0.00,,,0.01,Wunderground v.1.15,2013-05-08 16:20:00,
2013-05-08 12:25:00,66.4,59.3,30.00,WSW,242,1.0,17.0,78,0.00,,,0.01,Wunderground v.1.15,2013-05-08 16:25:00,
2013-05-08 12:30:00,67.0,59.9,30.00,WSW,243,1.0,1.0,78,0.00,,,0.01,Wunderground v.1.15,2013-05-08 16:30:00,
2013-05-08 12:35:00,67.7,59.9,30.00,WSW,243,1.0,17.0,76,0.00,,,0.01,Wunderground v.1.15,2013-05-08 16:35:00,
2013-05-08 12:40:00,67.9,60.1,30.00,South,175,0.0,17.0,76,0.00,,,0.01,Wunderground v.1.15,2013-05-08 16:40:00,
2013-05-08 12:50:00,67.8,59.6,29.99,South,175,0.0,17.0,75,0.00,,,0.01,Wunderground v.1.15,2013-05-08 16:50:00,
2013-05-08 12:55:00,68.3,60.4,29.99,South,175,0.0,17.0,76,0.00,,,0.01,Wunderground v.1.15,2013-05-08 16:55:00,
2013-05-08 13:00:00,68.8,59.8,30.00,East,98,1.0,17.0,73,0.00,,,0.01,Wunderground v.1.15,2013-05-08 17:00:00,
2013-05-08 13:05:00,68.8,59.8,30.00,East,98,1.0,17.0,73,0.00,,,0.01,Wunderground v.1.15,2013-05-08 17:05:00,
2013-05-08 13:10:00,69.0,60.0,30.00,East,86,1.0,1.0,73,0.00,,,0.01,Wunderground v.1.15,2013-05-08 17:10:00,
2013-05-08 13:20:00,68.8,59.4,29.99,SW,221,2.0,2.0,72,0.00,,,0.01,Wunderground v.1.15,2013-05-08 17:20:00,
2013-05-08 13:25:00,68.6,58.8,29.99,East,98,2.0,4.0,71,0.00,,,0.01,Wunderground v.1.15,2013-05-08 17:25:00,
2013-05-08 13:30:00,68.9,58.7,29.99,East,96,2.0,17.0,70,0.00,,,0.01,Wunderground v.1.15,2013-05-08 17:30:00,
2013-05-08 13:40:00,68.1,58.3,29.98,WSW,250,2.0,2.0,71,0.00,,,0.01,Wunderground v.1.15,2013-05-08 17:40:00,
2013-05-08 13:45:00,68.4,58.6,29.98,WSW,240,1.0,17.0,71,0.00,,,0.01,Wunderground v.1.15,2013-05-08 17:45:00,
2013-05-08 13:50:00,68.6,58.4,29.98,SSW,205,1.0,1.0,70,0.00,,,0.01,Wunderground v.1.15,2013-05-08 17:50:00,
2013-05-08 13:55:00,68.8,58.2,29.98,SSW,205,1.0,17.0,69,0.00,,,0.01,Wunderground v.1.15,2013-05-08 17:55:00,
2013-05-08 14:00:00,69.1,59.3,29.98,SSE,161,0.0,17.0,71,0.00,,,0.01,Wunderground v.1.15,2013-05-08 18:00:00,
2013-05-08 14:10:00,69.7,59.5,29.97,West,259,2.0,2.0,70,0.00,,,0.01,Wunderground v.1.15,2013-05-08 18:10:00,
2013-05-08 14:15:00,70.7,59.2,29.97,NNE,16,1.0,17.0,67,0.00,,,0.01,Wunderground v.1.15,2013-05-08 18:15:00,
2013-05-08 14:20:00,71.3,58.1,29.96,East,92,1.0,17.0,63,0.00,,,0.01,Wunderground v.1.15,2013-05-08 18:20:00,
2013-05-08 14:25:00,71.3,58.5,29.96,SSW,207,2.0,17.0,64,0.00,,,0.01,Wunderground v.1.15,2013-05-08 18:25:00,
2013-05-08 14:30:00,71.3,57.6,29.96,SW,226,2.0,2.0,62,0.00,,,0.01,Wunderground v.1.15,2013-05-08 18:30:00,
2013-05-08 14:40:00,71.4,59.0,29.95,SSW,211,3.0,17.0,65,0.00,,,0.01,Wunderground v.1.15,2013-05-08 18:40:00,
2013-05-08 14:45:00,71.5,56.9,29.95,SW,226,2.0,17.0,60,0.00,,,0.01,Wunderground v.1.15,2013-05-08 18:45:00,
2013-05-08 14:50:00,71.7,57.5,29.95,SSW,213,3.0,3.0,61,0.00,,,0.01,Wunderground v.1.15,2013-05-08 18:50:00,
2013-05-08 14:55:00,72.1,57.9,29.95,West,272,3.0,17.0,61,0.00,,,0.01,Wunderground v.1.15,2013-05-08 18:55:00,
2013-05-08 15:00:00,72.6,58.4,29.95,SSW,192,2.0,17.0,61,0.00,,,0.01,Wunderground v.1.15,2013-05-08 19:00:00,
2013-05-08 15:10:00,71.6,58.3,29.95,SW,219,3.0,17.0,63,0.00,,,0.01,Wunderground v.1.15,2013-05-08 19:10:00,
2013-05-08 15:15:00,71.2,57.5,29.95,ENE,76,2.0,17.0,62,0.00,,,0.01,Wunderground v.1.15,2013-05-08 19:15:00,
2013-05-08 15:20:00,70.8,58.0,29.94,South,191,1.0,17.0,64,0.00,,,0.01,Wunderground v.1.15,2013-05-08 19:20:00,
2013-05-08 15:30:00,70.6,56.9,29.95,East,99,2.0,2.0,62,0.00,,,0.01,Wunderground v.1.15,2013-05-08 19:30:00,
2013-05-08 15:35:00,71.2,56.6,29.94,West,262,2.0,3.0,60,0.00,,,0.01,Wunderground v.1.15,2013-05-08 19:35:00,
2013-05-08 15:40:00,71.7,58.0,29.94,East,99,2.0,2.0,62,0.00,,,0.01,Wunderground v.1.15,2013-05-08 19:40:00,
2013-05-08 15:45:00,71.0,57.8,29.94,SSW,205,2.0,17.0,63,0.00,,,0.01,Wunderground v.1.15,2013-05-08 19:45:00,
2013-05-08 15:50:00,69.7,57.0,29.94,ENE,78,3.0,3.0,64,0.00,,,0.01,Wunderground v.1.15,2013-05-08 19:50:00,
2013-05-08 16:00:00,68.7,55.6,29.94,ESE,105,2.0,2.0,63,0.00,,,0.01,Wunderground v.1.15,2013-05-08 20:00:00,
2013-05-08 16:05:00,68.6,56.4,29.94,SSE,159,1.0,17.0,65,0.00,,,0.01,Wunderground v.1.15,2013-05-08 20:05:00,
2013-05-08 16:10:00,68.4,56.6,29.94,East,81,1.0,1.0,66,0.00,,,0.01,Wunderground v.1.15,2013-05-08 20:10:00,
2013-05-08 16:15:00,68.2,56.4,29.95,East,84,2.0,2.0,66,0.00,,,0.01,Wunderground v.1.15,2013-05-08 20:15:00,
2013-05-08 16:20:00,67.1,56.2,29.96,South,184,3.0,17.0,68,0.00,,,0.01,Wunderground v.1.15,2013-05-08 20:20:00,
2013-05-08 16:30:00,64.6,55.4,29.97,ENE,65,3.0,3.0,72,0.00,,,0.01,Wunderground v.1.15,2013-05-08 20:30:00,
2013-05-08 16:35:00,63.5,55.1,29.97,ENE,67,3.0,17.0,74,0.00,,,0.01,Wunderground v.1.15,2013-05-08 20:35:00,
2013-05-08 16:40:00,62.9,54.9,29.97,East,100,4.0,17.0,75,0.00,,,0.01,Wunderground v.1.15,2013-05-08 20:40:00,
2013-05-08 16:45:00,62.4,54.7,29.98,NE,55,3.0,17.0,76,0.00,,,0.01,Wunderground v.1.15,2013-05-08 20:45:00,
2013-05-08 16:50:00,62.4,55.1,29.98,SW,233,2.0,2.0,77,0.00,,,0.01,Wunderground v.1.15,2013-05-08 20:50:00,
2013-05-08 17:00:00,62.3,55.4,29.99,SW,233,1.0,17.0,78,0.00,,,0.01,Wunderground v.1.15,2013-05-08 21:00:00,
2013-05-08 17:05:00,62.0,55.8,29.99,South,184,1.0,17.0,80,0.00,,,0.01,Wunderground v.1.15,2013-05-08 21:05:00,
2013-05-08 17:10:00,61.7,56.1,29.99,South,177,1.0,1.0,82,0.00,,,0.01,Wunderground v.1.15,2013-05-08 21:10:00,
2013-05-08 17:15:00,61.4,56.2,29.99,South,177,1.0,17.0,83,0.00,,,0.01,Wunderground v.1.15,2013-05-08 21:15:00,
2013-05-08 17:20:00,61.2,56.7,29.99,South,177,0.0,17.0,85,0.00,,,0.01,Wunderground v.1.15,2013-05-08 21:20:00,
2013-05-08 17:30:00,61.2,56.7,29.98,South,177,0.0,17.0,85,0.00,,,0.01,Wunderground v.1.15,2013-05-08 21:30:00,
2013-05-08 17:35:00,61.1,56.6,29.98,South,177,0.0,17.0,85,0.00,,,0.01,Wunderground v.1.15,2013-05-08 21:35:00,
2013-05-08 17:40:00,61.0,56.1,29.98,South,176,0.0,17.0,84,0.00,,,0.01,Wunderground v.1.15,2013-05-08 21:40:00,
2013-05-08 17:50:00,61.0,55.8,29.98,South,177,0.0,17.0,83,0.00,,,0.01,Wunderground v.1.15,2013-05-08 21:50:00,
2013-05-08 17:55:00,61.0,56.5,29.98,South,176,0.0,17.0,85,0.00,,,0.01,Wunderground v.1.15,2013-05-08 21:55:00,
2013-05-08 18:00:00,61.0,56.5,29.98,South,177,0.0,17.0,85,0.00,,,0.01,Wunderground v.1.15,2013-05-08 22:00:00,
2013-05-08 18:05:00,60.8,56.3,29.98,WSW,244,1.0,17.0,85,0.00,,,0.01,Wunderground v.1.15,2013-05-08 22:05:00,
2013-05-08 18:10:00,60.5,56.0,29.98,WSW,244,1.0,1.0,85,0.00,,,0.01,Wunderground v.1.15,2013-05-08 22:10:00,
2013-05-08 18:20:00,60.4,56.5,29.98,WSW,244,0.0,17.0,87,0.00,,,0.02,Wunderground v.1.15,2013-05-08 22:20:00,
2013-05-08 18:25:00,60.2,56.6,29.98,WSW,244,0.0,17.0,88,0.00,,,0.02,Wunderground v.1.15,2013-05-08 22:25:00,
2013-05-08 18:30:00,60.0,56.4,29.98,WSW,244,0.0,17.0,88,0.00,,,0.02,Wunderground v.1.15,2013-05-08 22:30:00,
2013-05-08 18:35:00,59.9,56.6,29.97,WSW,244,0.0,17.0,89,0.00,,,0.02,Wunderground v.1.15,2013-05-08 22:35:00,
2013-05-08 18:40:00,59.7,56.8,29.97,WSW,244,0.0,17.0,90,0.00,,,0.02,Wunderground v.1.15,2013-05-08 22:40:00,
2013-05-08 18:50:00,59.6,57.0,29.97,WSW,242,0.0,17.0,91,0.00,,,0.02,Wunderground v.1.15,2013-05-08 22:50:00,
2013-05-08 18:55:00,59.6,57.3,29.98,SW,233,0.0,17.0,92,0.00,,,0.02,Wunderground v.1.15,2013-05-08 22:55:00,
2013-05-08 19:00:00,59.3,56.7,29.98,SW,234,1.0,1.0,91,0.00,,,0.02,Wunderground v.1.15,2013-05-08 23:00:00,
2013-05-08 19:05:00,59.0,56.7,29.97,SW,234,1.0,17.0,92,0.00,,,0.02,Wunderground v.1.15,2013-05-08 23:05:00,
2013-05-08 19:10:00,59.0,57.0,29.97,SW,234,1.0,17.0,93,0.00,,,0.02,Wunderground v.1.15,2013-05-08 23:10:00,
2013-05-08 19:20:00,59.0,57.3,29.97,SW,234,1.0,1.0,94,0.00,,,0.02,Wunderground v.1.15,2013-05-08 23:20:00,
2013-05-08 19:25:00,58.8,57.1,29.97,SW,234,0.0,17.0,94,0.00,,,0.02,Wunderground v.1.15,2013-05-08 23:25:00,
2013-05-08 19:30:00,58.7,57.0,29.97,SW,233,0.0,17.0,94,0.00,,,0.02,Wunderground v.1.15,2013-05-08 23:30:00,
2013-05-08 19:35:00,58.7,57.3,29.97,SW,234,0.0,17.0,95,0.00,,,0.02,Wunderground v.1.15,2013-05-08 23:35:00,
2013-05-08 19:40:00,58.6,57.2,29.96,SW,233,0.0,17.0,95,0.00,,,0.03,Wunderground v.1.15,2013-05-08 23:40:00,
2013-05-08 19:50:00,58.4,57.3,29.97,SW,234,0.0,17.0,96,0.00,,,0.03,Wunderground v.1.15,2013-05-08 23:50:00,
2013-05-08 19:55:00,58.3,57.2,29.97,SW,233,0.0,17.0,96,0.00,,,0.03,Wunderground v.1.15,2013-05-08 23:55:00,
2013-05-08 20:00:00,58.3,57.2,29.96,SW,234,0.0,17.0,96,0.00,,,0.03,Wunderground v.1.15,2013-05-09 00:00:00,
2013-05-08 20:10:00,58.1,57.0,29.97,SW,233,0.0,17.0,96,0.00,,,0.03,Wunderground v.1.15,2013-05-09 00:10:00,
2013-05-08 20:15:00,58.0,56.9,29.96,SW,234,0.0,17.0,96,0.00,,,0.03,Wunderground v.1.15,2013-05-09 00:15:00,
2013-05-08 20:20:00,58.0,57.2,29.97,SW,233,0.0,17.0,97,0.00,,,0.03,Wunderground v.1.15,2013-05-09 00:20:00,
2013-05-08 20:25:00,57.9,57.1,29.97,SW,234,0.0,17.0,97,0.00,,,0.03,Wunderground v.1.15,2013-05-09 00:25:00,
2013-05-08 20:30:00,57.8,57.0,29.97,SW,234,0.0,17.0,97,0.00,,,0.03,Wunderground v.1.15,2013-05-09 00:30:00,
2013-05-08 20:40:00,57.6,56.8,29.98,SW,233,0.0,17.0,97,0.00,,,0.03,Wunderground v.1.15,2013-05-09 00:40:00,
2013-05-08 20:45:00,57.5,56.7,29.98,SW,234,0.0,17.0,97,0.00,,,0.03,Wunderground v.1.15,2013-05-09 00:45:00,
2013-05-08 20:50:00,57.5,56.9,29.98,SW,233,0.0,17.0,98,0.00,,,0.03,Wunderground v.1.15,2013-05-09 00:50:00,
2013-05-08 20:55:00,57.6,57.0,29.98,SW,234,0.0,17.0,98,0.00,,,0.03,Wunderground v.1.15,2013-05-09 00:55:00,
2013-05-08 21:00:00,57.5,56.7,29.98,SW,233,0.0,17.0,97,0.00,,,0.03,Wunderground v.1.15,2013-05-09 01:00:00,
2013-05-08 21:10:00,57.2,56.6,29.98,SW,234,0.0,17.0,98,0.00,,,0.03,Wunderground v.1.15,2013-05-09 01:10:00,
2013-05-08 21:15:00,57.1,56.5,29.98,SW,233,0.0,17.0,98,0.00,,,0.03,Wunderground v.1.15,2013-05-09 01:15:00,
2013-05-08 21:20:00,57.0,56.4,29.98,SW,233,0.0,17.0,98,0.00,,,0.03,Wunderground v.1.15,2013-05-09 01:20:00,
2013-05-08 21:25:00,56.9,56.3,29.98,SW,233,0.0,17.0,98,0.00,,,0.03,Wunderground v.1.15,2013-05-09 01:25:00,
2013-05-08 21:30:00,56.9,56.6,29.98,SW,234,0.0,17.0,99,0.00,,,0.03,Wunderground v.1.15,2013-05-09 01:30:00,
2013-05-08 21:40:00,56.8,56.5,29.99,SW,233,0.0,17.0,99,0.00,,,0.03,Wunderground v.1.15,2013-05-09 01:40:00,
2013-05-08 21:45:00,56.7,56.4,29.99,SW,234,0.0,17.0,99,0.00,,,0.03,Wunderground v.1.15,2013-05-09 01:45:00,
2013-05-08 21:50:00,56.6,56.3,29.99,SW,234,0.0,17.0,99,0.00,,,0.03,Wunderground v.1.15,2013-05-09 01:50:00,
2013-05-08 21:55:00,56.5,56.2,29.99,SW,233,0.0,17.0,99,0.00,,,0.03,Wunderground v.1.15,2013-05-09 01:55:00,
2013-05-08 22:05:00,56.4,56.1,29.99,SW,233,0.0,17.0,99,0.00,,,0.03,Wunderground v.1.15,2013-05-09 02:05:00,
2013-05-08 22:10:00,56.4,56.1,29.99,SW,234,0.0,17.0,99,0.00,,,0.03,Wunderground v.1.15,2013-05-09 02:10:00,
2013-05-08 22:15:00,56.3,56.0,30.00,SW,234,0.0,17.0,99,0.00,,,0.03,Wunderground v.1.15,2013-05-09 02:15:00,
2013-05-08 22:20:00,56.3,56.0,29.99,SW,233,0.0,17.0,99,0.00,,,0.03,Wunderground v.1.15,2013-05-09 02:20:00,
2013-05-08 22:25:00,56.3,56.0,29.99,SW,234,0.0,17.0,99,0.00,,,0.03,Wunderground v.1.15,2013-05-09 02:25:00,
2013-05-08 22:35:00,56.4,56.4,29.99,SW,233,0.0,17.0,100,0.00,,,0.03,Wunderground v.1.15,2013-05-09 02:35:00,
2013-05-08 22:40:00,56.5,56.5,29.99,SW,234,0.0,17.0,100,0.00,,,0.03,Wunderground v.1.15,2013-05-09 02:40:00,
2013-05-08 22:45:00,56.6,56.6,29.99,SW,233,0.0,17.0,100,0.00,,,0.03,Wunderground v.1.15,2013-05-09 02:45:00,
2013-05-08 22:50:00,56.6,56.6,29.99,SW,234,0.0,17.0,100,0.00,,,0.03,Wunderground v.1.15,2013-05-09 02:50:00,
2013-05-08 22:55:00,56.6,56.6,29.99,SW,234,0.0,17.0,100,0.00,,,0.03,Wunderground v.1.15,2013-05-09 02:55:00,
2013-05-08 23:05:00,56.6,56.6,29.99,SW,233,0.0,17.0,100,0.00,,,0.03,Wunderground v.1.15,2013-05-09 03:05:00,
2013-05-08 23:10:00,56.5,56.5,29.99,SW,234,0.0,17.0,100,0.00,,,0.03,Wunderground v.1.15,2013-05-09 03:10:00,
2013-05-08 23:15:00,56.5,56.5,29.99,SW,234,0.0,17.0,100,0.00,,,0.03,Wunderground v.1.15,2013-05-09 03:15:00,
2013-05-08 23:20:00,56.5,56.5,29.98,SW,234,0.0,17.0,100,0.00,,,0.03,Wunderground v.1.15,2013-05-09 03:20:00,
2013-05-08 23:30:00,56.5,56.5,29.99,SW,233,0.0,17.0,100,0.00,,,0.03,Wunderground v.1.15,2013-05-09 03:30:00,
2013-05-08 23:35:00,56.6,56.6,29.99,SW,234,0.0,17.0,100,0.00,,,0.03,Wunderground v.1.15,2013-05-09 03:35:00,
2013-05-08 23:40:00,56.6,56.6,29.99,SW,234,0.0,17.0,100,0.00,,,0.03,Wunderground v.1.15,2013-05-09 03:40:00,
2013-05-08 23:45:00,56.7,56.7,29.99,SW,233,0.0,17.0,100,0.00,,,0.03,Wunderground v.1.15,2013-05-09 03:45:00,
2013-05-08 23:50:00,56.7,56.7,29.99,SW,234,0.0,17.0,100,0.00,,,0.03,Wunderground v.1.15,2013-05-09 03:50:00,